Time;durP1;ratioP1;P1;durP2;ratioP2;P2;SDS_P1;SDS_P2;PMS_P1;PMS_P2;Temp;Humidity;BMP_temperature;BMP_pressure;BME280_temperature;BME280_humidity;BME280_pressure;Samples;Min_cycle;Max_cycle;Signal;HPM_P1;HPM_P2
2023/07/29 00:01:49;;;;;;;14.50;4.30;;;;;;;24.30;49.51;99400.42;107969;1256;59527;-69
2023/07/29 00:04:16;;;;;;;8.70;4.30;;;;;;;24.23;49.61;99401.34;107901;1255;70494;-68
2023/07/29 00:06:42;;;;;;;10.40;3.90;;;;;;;24.21;49.64;99397.23;107926;1255;73075;-69
2023/07/29 00:09:09;;;;;;;12.60;4.20;;;;;;;24.25;49.46;99394.83;107898;1259;59637;-68
2023/07/29 00:11:35;;;;;;;9.40;3.80;;;;;;;24.32;49.36;99390.02;107910;1255;59091;-69
2023/07/29 00:14:02;;;;;;;6.60;3.90;;;;;;;24.32;49.49;99387.09;107943;1256;59491;-69
2023/07/29 00:16:29;;;;;;;12.90;4.50;;;;;;;24.19;49.69;99390.80;107960;1259;70154;-69
2023/07/29 00:18:55;;;;;;;10.10;4.40;;;;;;;24.23;49.67;99389.10;107899;1259;72608;-69
2023/07/29 00:21:22;;;;;;;15.30;4.20;;;;;;;24.17;49.80;99389.66;107952;1256;59638;-70
2023/07/29 00:23:48;;;;;;;7.10;3.00;;;;;;;24.17;49.95;99389.74;107980;1255;59517;-70
2023/07/29 00:26:15;;;;;;;9.40;3.80;;;;;;;24.17;49.93;99390.63;107982;1256;60123;-68
2023/07/29 00:28:41;;;;;;;11.80;3.90;;;;;;;24.27;49.74;99387.06;107965;1256;71119;-69
2023/07/29 00:31:08;;;;;;;13.90;4.40;;;;;;;24.28;49.91;99392.55;107913;1256;72482;-69
2023/07/29 00:33:35;;;;;;;11.80;5.40;;;;;;;24.14;50.06;99386.48;108183;1253;59644;-68
2023/07/29 00:36:02;;;;;;;7.30;4.60;;;;;;;24.11;50.13;99389.09;108217;1253;59122;-68
2023/07/29 00:38:29;;;;;;;12.50;5.10;;;;;;;23.88;50.47;99387.02;108276;1256;72833;-69
2023/07/29 00:41:00;;;;;;;7.80;4.80;;;;;;;23.51;51.24;99383.15;108150;1253;70041;-68
2023/07/29 00:43:26;;;;;;;7.80;4.60;;;;;;;23.50;51.15;99387.79;108131;1258;72659;-68
2023/07/29 00:45:54;;;;;;;8.80;4.60;;;;;;;23.63;50.80;99383.84;108130;1253;60742;-68
2023/07/29 00:48:20;;;;;;;9.70;4.70;;;;;;;23.58;50.85;99380.48;108137;1257;60157;-69
2023/07/29 00:50:47;;;;;;;9.30;4.70;;;;;;;23.56;50.90;99382.82;108117;1253;73290;-69
2023/07/29 00:53:14;;;;;;;7.10;4.90;;;;;;;23.57;51.04;99380.75;108143;1253;59644;-70
2023/07/29 00:55:41;;;;;;;6.60;4.60;;;;;;;23.66;50.99;99384.69;108137;1253;72451;-69
2023/07/29 00:58:08;;;;;;;8.10;4.70;;;;;;;23.65;50.93;99384.56;108184;1253;61371;-69
2023/07/29 01:00:34;;;;;;;8.00;3.90;;;;;;;23.67;51.06;99378.59;108140;1252;59795;-68
2023/07/29 01:03:03;;;;;;;10.20;4.70;;;;;;;23.90;50.65;99379.55;108120;1253;73399;-70
2023/07/29 01:05:34;;;;;;;10.40;4.60;;;;;;;23.94;50.56;99384.47;108138;1252;70662;-69
2023/07/29 01:08:36;;;;;;;10.90;4.70;;;;;;;24.05;50.42;99387.45;108145;1253;72701;-69
2023/07/29 01:11:40;;;;;;;9.90;5.10;;;;;;;24.50;49.29;99389.86;108066;1259;61877;-69
2023/07/29 01:14:14;;;;;;;14.70;4.90;;;;;;;24.63;49.05;99394.59;108130;1253;59220;-69
2023/07/29 01:16:43;;;;;;;11.60;5.20;;;;;;;24.25;49.68;99394.08;108154;1252;71588;-69
2023/07/29 01:19:15;;;;;;;10.40;5.30;;;;;;;24.22;49.77;99387.41;108146;1253;69081;-69
2023/07/29 01:21:42;;;;;;;8.80;5.10;;;;;;;24.60;49.00;99388.77;108126;1253;71070;-68
2023/07/29 01:24:09;;;;;;;11.20;5.20;;;;;;;24.76;48.60;99387.78;108087;1255;61851;-69
2023/07/29 01:26:35;;;;;;;7.70;5.00;;;;;;;24.54;49.04;99387.84;108108;1253;59174;-70
2023/07/29 01:29:03;;;;;;;7.20;4.10;;;;;;;24.50;49.22;99383.74;108149;1253;73103;-69
2023/07/29 01:31:34;;;;;;;8.00;4.70;;;;;;;24.66;48.78;99384.77;107971;1253;70469;-69
2023/07/29 01:34:12;;;;;;;10.80;4.70;;;;;;;24.73;48.55;99383.51;108153;1253;72506;-70
2023/07/29 01:36:40;;;;;;;8.60;4.30;;;;;;;24.69;48.52;99385.45;108197;1253;61764;-69
2023/07/29 01:39:08;;;;;;;11.40;4.70;;;;;;;24.71;48.44;99386.13;108026;1253;59692;-69
2023/07/29 01:41:35;;;;;;;12.00;5.00;;;;;;;24.69;48.30;99384.81;107966;1253;72818;-67
2023/07/29 01:44:01;;;;;;;7.80;4.60;;;;;;;24.66;48.28;99384.73;107908;1253;69998;-69
2023/07/29 01:46:33;;;;;;;6.20;4.50;;;;;;;24.75;48.07;99382.02;108032;1253;72086;-68
2023/07/29 01:49:00;;;;;;;9.80;4.40;;;;;;;24.85;47.83;99384.27;108103;1253;61664;-69
2023/07/29 01:51:27;;;;;;;7.20;4.70;;;;;;;24.89;47.72;99383.16;107999;1253;60073;-69
2023/07/29 01:53:55;;;;;;;9.90;4.40;;;;;;;24.95;47.58;99386.90;108166;1253;71552;-69
2023/07/29 01:56:22;;;;;;;6.40;4.10;;;;;;;24.98;47.41;99388.51;108109;1253;70121;-69
2023/07/29 01:58:54;;;;;;;7.80;4.40;;;;;;;24.98;47.44;99395.28;108126;1253;72929;-69
2023/07/29 02:01:21;;;;;;;9.00;4.30;;;;;;;25.08;47.22;99396.13;107949;1253;60794;-69
2023/07/29 02:03:53;;;;;;;6.50;4.00;;;;;;;25.19;46.88;99393.42;108101;1253;60267;-69
2023/07/29 02:06:19;;;;;;;7.20;4.10;;;;;;;25.17;46.90;99393.77;108118;1253;73016;-69
2023/07/29 02:08:46;;;;;;;7.40;3.90;;;;;;;25.29;46.60;99393.55;107998;1258;70440;-68
2023/07/29 02:11:12;;;;;;;7.10;4.10;;;;;;;25.35;46.71;99395.44;108110;1253;59847;-69
2023/07/29 02:13:39;;;;;;;8.60;4.10;;;;;;;25.54;46.41;99394.20;108093;1258;59689;-70
2023/07/29 02:16:06;;;;;;;7.50;3.50;;;;;;;25.49;46.42;99392.77;108109;1253;60160;-70
2023/07/29 02:18:32;;;;;;;6.80;4.00;;;;;;;25.47;46.37;99392.67;108149;1253;73142;-69
2023/07/29 02:20:59;;;;;;;4.50;3.60;;;;;;;25.56;46.16;99391.20;107957;1258;59660;-70
2023/07/29 02:23:26;;;;;;;5.20;3.30;;;;;;;25.79;45.74;99387.64;107980;1255;72633;-69
2023/07/29 02:25:52;;;;;;;7.20;3.80;;;;;;;25.68;45.95;99392.42;108008;1253;61996;-69
2023/07/29 02:28:19;;;;;;;9.30;3.40;;;;;;;25.94;45.34;99387.41;108181;1253;59757;-70
2023/07/29 02:30:46;;;;;;;6.80;4.20;;;;;;;25.99;45.36;99385.35;108119;1253;73212;-69
2023/07/29 02:33:13;;;;;;;8.50;3.50;;;;;;;26.04;45.13;99382.70;108128;1253;70561;-70
2023/07/29 02:35:39;;;;;;;7.10;3.80;;;;;;;26.11;45.02;99382.98;108160;1253;72457;-69
2023/07/29 02:38:06;;;;;;;6.50;4.00;;;;;;;26.18;44.84;99386.86;108150;1253;61811;-68
2023/07/29 02:40:33;;;;;;;8.50;3.50;;;;;;;25.85;45.52;99392.55;108101;1253;59540;-68
2023/07/29 02:42:59;;;;;;;7.60;3.70;;;;;;;25.92;45.54;99399.98;107970;1253;73015;-70
2023/07/29 02:45:26;;;;;;;6.60;3.70;;;;;;;25.90;45.55;99400.02;107963;1253;70870;-69
2023/07/29 02:47:53;;;;;;;5.50;4.00;;;;;;;25.96;45.39;99396.73;108067;1257;73085;-68
2023/07/29 02:50:20;;;;;;;5.90;3.50;;;;;;;25.99;45.52;99398.16;108088;1253;61941;-70
2023/07/29 02:52:46;;;;;;;5.90;4.00;;;;;;;26.21;44.97;99399.62;107913;1258;60465;-69
2023/07/29 02:55:17;;;;;;;6.40;3.80;;;;;;;26.20;45.05;99396.16;108067;1257;73935;-70
2023/07/29 02:57:43;;;;;;;8.30;3.60;;;;;;;26.41;44.66;99400.88;107959;1253;70120;-69
2023/07/29 03:00:11;;;;;;;4.80;3.30;;;;;;;26.73;43.97;99400.14;107964;1253;72469;-70
2023/07/29 03:02:38;;;;;;;6.80;3.70;;;;;;;26.89;43.75;99399.84;108203;1253;60745;-67
2023/07/29 03:05:05;;;;;;;5.60;3.50;;;;;;;26.62;44.05;99395.83;107961;1253;60576;-69
2023/07/29 03:07:32;;;;;;;6.60;3.60;;;;;;;26.58;44.32;99394.25;108027;1253;74046;-69
2023/07/29 03:09:58;;;;;;;5.60;3.30;;;;;;;26.73;43.97;99394.25;108021;1253;60355;-69
2023/07/29 03:12:26;;;;;;;5.00;3.10;;;;;;;26.71;44.06;99393.21;107948;1253;73099;-68
2023/07/29 03:14:53;;;;;;;6.90;3.30;;;;;;;26.72;43.96;99393.95;107908;1253;60714;-68
2023/07/29 03:17:19;;;;;;;6.60;3.40;;;;;;;26.72;43.88;99394.86;107914;1253;60302;-69
2023/07/29 03:19:46;;;;;;;6.90;3.80;;;;;;;26.82;43.68;99392.80;108155;1253;73823;-70
2023/07/29 03:22:12;;;;;;;8.80;3.80;;;;;;;26.69;44.07;99395.38;108098;1253;60463;-70
2023/07/29 03:24:39;;;;;;;7.50;3.60;;;;;;;26.90;43.63;99393.48;108134;1253;60446;-70
2023/07/29 03:27:05;;;;;;;8.90;3.90;;;;;;;26.95;43.67;99396.75;107986;1253;60440;-69
2023/07/29 03:29:32;;;;;;;7.20;3.80;;;;;;;26.82;43.76;99403.77;108088;1255;60522;-70
2023/07/29 03:31:59;;;;;;;3.60;3.00;;;;;;;26.86;43.88;99408.88;108026;1253;60342;-68
2023/07/29 03:34:25;;;;;;;6.20;3.70;;;;;;;27.01;43.67;99410.35;108038;1253;70174;-68
2023/07/29 03:36:52;;;;;;;4.50;3.40;;;;;;;27.08;43.55;99409.73;107964;1253;72373;-69
2023/07/29 03:39:19;;;;;;;7.00;3.70;;;;;;;27.09;43.47;99412.84;107972;1253;60450;-68
2023/07/29 03:41:45;;;;;;;7.20;3.30;;;;;;;27.30;43.27;99409.95;107946;1253;60471;-69
2023/07/29 03:44:12;;;;;;;6.40;3.20;;;;;;;27.66;42.63;99407.84;108106;1253;60327;-68
2023/07/29 03:46:38;;;;;;;4.80;3.40;;;;;;;28.07;42.14;99407.44;108026;1253;60399;-69
2023/07/29 03:49:06;;;;;;;5.20;3.10;;;;;;;28.15;41.68;99405.24;107856;1254;72557;-70
2023/07/29 03:51:33;;;;;;;6.40;3.20;;;;;;;28.21;41.59;99408.98;108047;1253;61963;-70
2023/07/29 03:54:00;;;;;;;3.60;2.80;;;;;;;28.24;41.51;99408.30;107964;1253;60152;-71
2023/07/29 03:56:26;;;;;;;5.90;3.10;;;;;;;28.17;41.67;99408.02;108099;1257;60482;-68
2023/07/29 03:58:53;;;;;;;4.50;3.20;;;;;;;28.15;41.31;99408.23;108114;1257;60330;-70
2023/07/29 04:01:19;;;;;;;6.00;3.00;;;;;;;28.17;41.40;99410.38;108014;1253;72443;-68
2023/07/29 04:03:46;;;;;;;4.50;3.10;;;;;;;28.19;41.27;99409.00;108151;1253;61886;-69
2023/07/29 04:06:13;;;;;;;5.60;3.20;;;;;;;28.39;40.90;99415.45;108096;1253;60346;-69
2023/07/29 04:08:41;;;;;;;5.90;3.00;;;;;;;28.40;40.87;99421.13;107923;1253;60314;-68
2023/07/29 04:11:08;;;;;;;6.10;3.40;;;;;;;28.41;40.80;99420.42;107901;1253;70029;-70
2023/07/29 04:13:34;;;;;;;5.50;3.30;;;;;;;28.50;40.76;99420.22;108090;1253;72697;-71
2023/07/29 04:16:01;;;;;;;4.50;3.20;;;;;;;28.53;40.38;99424.73;107970;1253;62039;-70
2023/07/29 04:18:28;;;;;;;6.30;3.00;;;;;;;28.42;40.58;99424.78;108001;1257;60374;-70
2023/07/29 04:20:55;;;;;;;5.60;3.30;;;;;;;28.64;40.13;99428.41;107925;1255;73683;-70
2023/07/29 04:23:21;;;;;;;7.50;3.30;;;;;;;28.76;40.19;99431.70;107980;1254;60365;-72
2023/07/29 04:25:49;;;;;;;4.20;3.40;;;;;;;28.95;39.91;99428.74;108121;1253;72763;-70
2023/07/29 04:28:16;;;;;;;5.00;3.80;;;;;;;28.90;39.76;99426.80;108110;1253;60869;-70
2023/07/29 04:30:42;;;;;;;7.30;3.50;;;;;;;28.89;39.80;99425.38;107932;1253;60931;-71
2023/07/29 04:33:09;;;;;;;5.10;3.40;;;;;;;28.89;39.88;99426.27;108132;1256;60158;-71
2023/07/29 04:35:36;;;;;;;6.40;3.50;;;;;;;29.10;39.64;99430.36;108175;1256;71503;-71
2023/07/29 04:38:03;;;;;;;7.60;3.40;;;;;;;29.19;39.22;99429.45;107995;1258;72639;-69
2023/07/29 04:40:33;;;;;;;4.40;3.00;;;;;;;29.19;39.38;99430.12;107966;1253;60492;-70
2023/07/29 04:43:02;;;;;;;5.90;3.10;;;;;;;29.27;39.38;99432.69;108023;1253;59161;-71
2023/07/29 04:45:29;;;;;;;3.50;2.90;;;;;;;29.49;39.05;99422.11;108107;1253;73826;-69
2023/07/29 04:47:56;;;;;;;3.50;2.70;;;;;;;29.76;38.59;99422.88;108104;1253;70164;-68
2023/07/29 04:50:23;;;;;;;8.50;3.00;;;;;;;30.41;37.66;99421.11;108023;1253;72480;-69
2023/07/29 04:52:52;;;;;;;6.60;3.20;;;;;;;31.07;36.80;99415.52;108087;1254;61724;-69
2023/07/29 04:55:19;;;;;;;4.30;2.90;;;;;;;31.51;35.92;99412.52;108096;1253;60322;-70
2023/07/29 04:57:45;;;;;;;6.60;2.60;;;;;;;31.82;35.41;99412.86;108099;1257;59947;-70
2023/07/29 05:00:13;;;;;;;4.60;2.30;;;;;;;32.57;34.43;99413.80;108059;1253;60366;-69
2023/07/29 05:02:39;;;;;;;4.90;2.60;;;;;;;32.99;33.55;99412.90;107937;1258;72676;-70
2023/07/29 05:05:07;;;;;;;3.20;2.10;;;;;;;33.14;32.99;99417.88;108022;1257;60979;-70
2023/07/29 05:07:34;;;;;;;3.70;2.40;;;;;;;33.21;32.74;99415.46;108091;1253;60335;-71
2023/07/29 05:10:01;;;;;;;3.60;2.40;;;;;;;33.45;32.52;99414.00;107951;1253;73074;-72
2023/07/29 05:12:29;;;;;;;4.20;2.20;;;;;;;33.93;32.11;99411.34;108067;1253;61573;-70
2023/07/29 05:14:56;;;;;;;2.80;2.20;;;;;;;34.26;31.62;99412.70;108117;1253;62562;-72
2023/07/29 05:17:22;;;;;;;3.00;2.10;;;;;;;34.44;30.88;99415.44;107888;1253;60246;-71
2023/07/29 05:19:49;;;;;;;4.30;2.20;;;;;;;34.59;30.56;99413.00;108112;1254;60517;-71
2023/07/29 05:22:15;;;;;;;3.00;2.10;;;;;;;34.91;30.20;99411.65;108107;1256;65784;-70
2023/07/29 05:24:42;;;;;;;3.60;2.00;;;;;;;34.94;29.86;99414.17;107974;1253;60558;-70
2023/07/29 05:27:08;;;;;;;5.90;1.70;;;;;;;34.94;29.86;99412.33;108173;1257;60303;-70
2023/07/29 05:29:35;;;;;;;3.20;1.90;;;;;;;35.06;29.53;99409.14;108156;1253;59422;-70
2023/07/29 05:32:02;;;;;;;3.40;2.00;;;;;;;35.28;29.51;99409.11;108180;1255;60393;-70
2023/07/29 05:34:29;;;;;;;2.70;1.90;;;;;;;35.55;29.44;99413.23;108199;1253;65243;-70
2023/07/29 05:36:55;;;;;;;3.80;1.80;;;;;;;35.48;29.48;99414.52;108152;1257;61757;-70
2023/07/29 05:39:22;;;;;;;3.20;1.80;;;;;;;35.72;29.38;99413.67;108165;1256;63846;-70
2023/07/29 05:41:48;;;;;;;3.20;1.70;;;;;;;36.02;28.46;99415.27;108072;1253;60322;-71
2023/07/29 05:44:15;;;;;;;5.00;1.90;;;;;;;35.97;28.34;99418.65;108118;1256;60165;-70
2023/07/29 05:46:42;;;;;;;4.90;2.10;;;;;;;36.13;28.32;99419.61;108113;1253;65286;-71
2023/07/29 05:49:08;;;;;;;2.40;1.50;;;;;;;36.16;28.04;99420.32;108131;1257;60433;-70
2023/07/29 05:51:35;;;;;;;3.10;1.70;;;;;;;36.29;27.75;99419.61;108072;1259;60490;-71
2023/07/29 05:54:01;;;;;;;2.80;1.60;;;;;;;36.33;27.64;99421.85;108098;1254;61082;-69
2023/07/29 05:56:28;;;;;;;4.40;1.80;;;;;;;36.50;27.70;99421.80;108137;1253;60403;-71
2023/07/29 05:58:54;;;;;;;2.10;1.70;;;;;;;36.59;27.55;99421.45;108183;1253;65167;-70
2023/07/29 06:01:21;;;;;;;2.50;1.60;;;;;;;36.66;27.39;99423.09;108228;1254;61479;-69
2023/07/29 06:03:47;;;;;;;4.40;1.60;;;;;;;36.64;27.32;99418.85;108182;1257;63861;-70
2023/07/29 06:06:14;;;;;;;4.10;2.10;;;;;;;36.32;27.53;99419.16;108163;1254;60339;-71
2023/07/29 06:08:41;;;;;;;6.40;2.60;;;;;;;36.14;28.04;99418.55;108141;1254;59979;-70
2023/07/29 06:11:07;;;;;;;2.60;1.90;;;;;;;36.01;28.18;99418.55;108104;1254;60328;-71
2023/07/29 06:13:34;;;;;;;2.70;2.00;;;;;;;35.65;28.53;99419.75;108167;1258;60470;-71
2023/07/29 06:16:00;;;;;;;3.10;2.10;;;;;;;35.36;29.16;99422.55;108190;1254;59695;-71
2023/07/29 06:18:27;;;;;;;5.40;2.40;;;;;;;34.87;29.58;99421.13;108116;1254;60361;-71
2023/07/29 06:20:54;;;;;;;4.30;2.30;;;;;;;34.58;29.95;99424.45;108191;1253;60325;-70
2023/07/29 06:23:20;;;;;;;3.00;2.10;;;;;;;34.61;30.05;99421.86;108084;1254;60441;-73
2023/07/29 06:25:47;;;;;;;2.60;2.00;;;;;;;34.36;30.44;99420.08;108140;1253;60358;-72
2023/07/29 06:28:13;;;;;;;2.70;2.30;;;;;;;34.18;30.89;99419.82;108153;1254;62859;-71
2023/07/29 06:30:40;;;;;;;3.50;2.40;;;;;;;34.01;31.13;99422.73;108155;1254;60369;-70
2023/07/29 06:33:07;;;;;;;4.20;2.40;;;;;;;33.97;30.90;99418.94;108089;1255;60304;-70
2023/07/29 06:35:33;;;;;;;5.50;2.40;;;;;;;34.03;31.30;99416.36;108088;1255;65251;-71
2023/07/29 06:38:00;;;;;;;5.30;2.20;;;;;;;34.35;31.13;99416.60;108140;1253;59225;-69
2023/07/29 06:40:26;;;;;;;3.80;2.30;;;;;;;34.41;31.01;99415.34;108168;1255;64026;-69
2023/07/29 06:42:53;;;;;;;4.60;2.40;;;;;;;34.37;31.21;99414.13;108137;1257;60421;-72
2023/07/29 06:45:20;;;;;;;4.60;2.10;;;;;;;34.55;30.90;99418.73;108146;1254;60326;-71
2023/07/29 06:47:46;;;;;;;2.90;1.70;;;;;;;34.75;30.44;99416.64;108183;1254;63631;-72
2023/07/29 06:50:13;;;;;;;2.00;1.70;;;;;;;34.91;30.03;99417.33;108141;1257;60413;-72
2023/07/29 06:52:40;;;;;;;3.10;2.00;;;;;;;34.91;29.80;99413.29;108181;1253;63995;-71
2023/07/29 06:55:07;;;;;;;4.60;1.90;;;;;;;35.17;29.76;99412.07;108123;1256;60323;-73
2023/07/29 06:57:34;;;;;;;2.80;1.90;;;;;;;35.16;29.78;99415.83;108138;1254;60426;-71
2023/07/29 07:00:01;;;;;;;2.20;1.90;;;;;;;35.21;29.79;99412.18;108230;1257;65474;-71
2023/07/29 07:02:28;;;;;;;2.40;2.20;;;;;;;35.41;29.71;99410.85;108239;1254;61715;-71
2023/07/29 07:04:54;;;;;;;2.80;1.80;;;;;;;35.68;29.58;99409.80;108084;1254;62498;-71
2023/07/29 07:07:21;;;;;;;2.20;1.70;;;;;;;36.21;29.08;99404.75;108165;1256;60371;-71
2023/07/29 07:09:48;;;;;;;2.30;1.90;;;;;;;36.63;28.71;99407.65;108138;1254;60443;-71
2023/07/29 07:12:14;;;;;;;1.90;1.70;;;;;;;36.98;28.25;99404.52;108153;1257;65345;-71
2023/07/29 07:14:41;;;;;;;2.40;1.80;;;;;;;37.19;27.42;99405.77;108138;1253;60308;-71
2023/07/29 07:17:07;;;;;;;2.90;2.00;;;;;;;36.92;27.47;99411.21;108121;1253;59086;-71
2023/07/29 07:19:37;;;;;;;2.70;2.20;;;;;;;36.58;27.92;99413.85;108008;1253;60365;-71
2023/07/29 07:22:04;;;;;;;3.40;2.00;;;;;;;36.43;28.16;99413.50;108175;1254;60445;-71
2023/07/29 07:24:31;;;;;;;2.90;1.90;;;;;;;36.49;28.24;99415.83;108135;1254;66444;-71
2023/07/29 07:26:57;;;;;;;3.20;2.10;;;;;;;36.81;27.98;99414.85;108117;1257;61444;-70
2023/07/29 07:29:24;;;;;;;3.00;1.80;;;;;;;36.93;27.79;99415.12;108126;1253;62487;-69
2023/07/29 07:31:54;;;;;;;2.60;2.00;;;;;;;36.82;27.78;99415.96;108049;1254;60413;-71
2023/07/29 07:34:21;;;;;;;3.40;2.20;;;;;;;36.58;27.97;99409.23;108111;1253;60208;-70
2023/07/29 07:36:47;;;;;;;4.40;1.70;;;;;;;36.65;28.01;99408.58;108077;1253;63832;-71
2023/07/29 07:39:14;;;;;;;2.30;1.90;;;;;;;36.84;28.18;99409.42;108065;1254;61704;-70
2023/07/29 07:41:41;;;;;;;2.80;2.00;;;;;;;36.91;27.81;99407.02;108015;1255;63818;-70
2023/07/29 07:44:08;;;;;;;3.10;1.70;;;;;;;37.20;27.74;99399.42;108000;1254;60287;-70
2023/07/29 07:46:34;;;;;;;2.30;1.80;;;;;;;37.77;27.18;99395.08;108019;1253;59731;-71
2023/07/29 07:49:01;;;;;;;2.30;1.80;;;;;;;38.11;26.56;99395.97;108024;1254;65119;-70
2023/07/29 07:51:28;;;;;;;3.00;2.10;;;;;;;38.14;26.13;99396.08;108081;1254;61348;-73
2023/07/29 07:53:55;;;;;;;4.40;1.90;;;;;;;37.63;26.64;99395.83;107977;1253;64093;-71
2023/07/29 07:56:21;;;;;;;2.50;1.80;;;;;;;37.23;26.91;99396.66;108041;1254;60458;-71
2023/07/29 07:58:48;;;;;;;2.50;1.80;;;;;;;37.37;27.17;99393.55;108091;1254;60915;-72
2023/07/29 08:01:14;;;;;;;4.80;2.20;;;;;;;37.59;26.73;99391.04;108075;1257;65636;-70
2023/07/29 08:03:41;;;;;;;2.10;1.80;;;;;;;38.05;26.51;99391.92;108121;1254;61462;-71
2023/07/29 08:06:07;;;;;;;2.70;2.00;;;;;;;38.30;25.88;99392.23;108076;1254;63842;-72
2023/07/29 08:08:37;;;;;;;2.70;1.90;;;;;;;38.68;25.65;99393.55;108102;1254;60333;-71
2023/07/29 08:11:03;;;;;;;3.00;2.00;;;;;;;38.99;25.48;99399.00;108136;1254;60316;-72
2023/07/29 08:13:30;;;;;;;3.70;2.10;;;;;;;39.02;25.46;99399.14;108026;1254;65259;-71
2023/07/29 08:15:56;;;;;;;3.70;2.50;;;;;;;38.88;25.55;99402.55;108057;1254;60982;-72
2023/07/29 08:18:23;;;;;;;4.30;2.00;;;;;;;39.01;25.18;99403.09;107990;1254;72664;-71
2023/07/29 08:20:54;;;;;;;2.30;1.90;;;;;;;39.18;24.98;99404.69;108049;1253;59156;-71
2023/07/29 08:23:21;;;;;;;4.30;2.40;;;;;;;38.96;25.25;99404.92;108088;1256;60435;-71
2023/07/29 08:25:55;;;;;;;3.90;2.00;;;;;;;39.28;25.03;99406.59;108177;1253;63629;-71
2023/07/29 08:28:23;;;;;;;3.40;2.00;;;;;;;39.35;24.78;99408.96;108173;1254;62187;-70
2023/07/29 08:30:50;;;;;;;2.80;1.90;;;;;;;39.21;24.80;99407.96;108161;1253;63758;-70
2023/07/29 08:33:16;;;;;;;3.60;2.30;;;;;;;39.21;24.96;99404.39;107944;1253;60166;-72
2023/07/29 08:35:43;;;;;;;2.90;2.10;;;;;;;39.19;25.15;99398.65;108084;1253;59136;-69
2023/07/29 08:38:09;;;;;;;3.90;2.30;;;;;;;38.98;25.21;99396.24;108125;1253;63722;-70
2023/07/29 08:40:37;;;;;;;4.10;2.10;;;;;;;38.90;25.45;99391.16;108147;1254;60416;-72
2023/07/29 08:43:04;;;;;;;3.00;2.00;;;;;;;38.70;25.78;99388.43;108207;1256;63980;-72
2023/07/29 08:45:34;;;;;;;2.60;2.20;;;;;;;38.79;26.02;99390.44;108175;1253;60531;-69
2023/07/29 08:48:02;;;;;;;4.70;2.10;;;;;;;39.31;25.31;99391.81;108201;1254;60398;-70
2023/07/29 08:50:29;;;;;;;7.00;2.20;;;;;;;39.41;24.95;99387.88;108129;1253;64978;-71
2023/07/29 08:52:56;;;;;;;2.80;2.00;;;;;;;39.38;25.04;99390.60;108179;1254;61504;-70
2023/07/29 08:55:22;;;;;;;2.40;2.10;;;;;;;39.20;25.29;99388.84;108193;1253;60300;-71
2023/07/29 08:57:49;;;;;;;5.50;2.60;;;;;;;39.29;25.24;99386.12;108181;1257;60437;-70
2023/07/29 09:00:16;;;;;;;3.30;2.30;;;;;;;39.31;25.13;99377.14;108111;1254;60413;-71
2023/07/29 09:02:47;;;;;;;4.70;2.50;;;;;;;39.47;25.02;99381.29;108179;1254;64946;-71
2023/07/29 09:05:13;;;;;;;3.50;2.10;;;;;;;39.85;24.81;99384.96;108222;1254;61338;-70
2023/07/29 09:07:40;;;;;;;3.00;2.50;;;;;;;39.89;24.72;99385.04;108229;1252;63832;-71
2023/07/29 09:10:09;;;;;;;2.50;2.10;;;;;;;39.83;24.59;99385.13;108254;1254;60351;-72
2023/07/29 09:12:36;;;;;;;3.20;2.40;;;;;;;40.29;24.45;99384.40;108199;1254;60408;-71
2023/07/29 09:15:03;;;;;;;3.50;2.10;;;;;;;40.82;24.04;99378.48;108215;1253;65214;-71
2023/07/29 09:17:33;;;;;;;3.20;1.90;;;;;;;41.09;23.48;99376.64;108207;1254;61464;-71
2023/07/29 09:19:59;;;;;;;4.40;2.50;;;;;;;41.30;23.20;99372.84;108023;1259;64928;-72
2023/07/29 09:22:26;;;;;;;3.50;2.10;;;;;;;41.04;23.37;99377.18;108075;1254;59189;-72
2023/07/29 09:24:53;;;;;;;2.80;2.30;;;;;;;40.77;23.77;99376.34;108250;1254;60533;-71
2023/07/29 09:27:27;;;;;;;2.60;2.30;;;;;;;40.74;23.98;99379.97;108210;1253;65279;-70
2023/07/29 09:29:54;;;;;;;3.90;2.10;;;;;;;40.62;23.78;99376.91;108192;1253;61523;-71
2023/07/29 09:32:21;;;;;;;3.60;2.30;;;;;;;40.81;23.73;99376.67;108156;1255;64261;-71
2023/07/29 09:34:48;;;;;;;3.70;2.40;;;;;;;41.11;23.49;99375.33;108147;1254;60564;-73
2023/07/29 09:37:21;;;;;;;4.70;2.50;;;;;;;41.06;23.48;99377.19;108146;1253;60358;-71
2023/07/29 09:39:48;;;;;;;5.80;2.40;;;;;;;41.08;23.45;99371.52;108158;1254;65249;-72
2023/07/29 09:42:21;;;;;;;3.90;2.30;;;;;;;41.00;23.62;99367.42;108234;1253;61431;-72
2023/07/29 09:44:49;;;;;;;3.60;2.30;;;;;;;41.38;23.50;99366.36;108141;1254;64046;-71
2023/07/29 09:47:24;;;;;;;2.60;2.00;;;;;;;41.62;23.26;99361.30;108264;1254;60460;-72
2023/07/29 09:49:51;;;;;;;6.30;2.60;;;;;;;41.88;22.91;99366.33;108145;1257;60379;-72
2023/07/29 09:52:21;;;;;;;4.00;2.10;;;;;;;41.92;22.72;99364.11;108035;1252;63622;-72
2023/07/29 09:54:48;;;;;;;3.60;2.00;;;;;;;41.92;22.49;99367.03;108186;1254;60483;-72
2023/07/29 09:57:16;;;;;;;7.40;3.00;;;;;;;41.92;22.14;99366.48;108011;1253;64080;-71
2023/07/29 09:59:43;;;;;;;3.60;2.10;;;;;;;41.75;22.54;99364.27;108102;1254;60329;-70
2023/07/29 10:02:13;;;;;;;3.80;2.00;;;;;;;41.56;22.61;99364.73;108051;1253;60335;-71
2023/07/29 10:04:43;;;;;;;;;;;;;;;41.30;23.12;99366.58;108083;1253;65104;-71
2023/07/29 10:07:10;;;;;;;4.50;2.30;;;;;;;40.94;23.58;99362.48;108218;1253;60343;-71
2023/07/29 10:09:38;;;;;;;2.70;2.00;;;;;;;40.39;23.90;99357.36;108213;1253;63889;-71
2023/07/29 10:12:08;;;;;;;5.80;2.50;;;;;;;40.31;24.27;99352.82;108198;1254;60347;-71
2023/07/29 10:14:35;;;;;;;2.70;2.20;;;;;;;40.56;24.06;99352.11;108061;1253;60422;-70
2023/07/29 10:17:01;;;;;;;3.70;2.20;;;;;;;40.56;24.08;99353.23;108222;1253;63702;-69
2023/07/29 10:19:28;;;;;;;4.20;2.30;;;;;;;40.28;24.08;99352.63;108132;1253;61665;-71
2023/07/29 10:21:55;;;;;;;4.60;2.20;;;;;;;39.98;24.31;99352.41;108095;1253;60284;-71
2023/07/29 10:24:29;;;;;;;5.40;2.30;;;;;;;39.72;24.75;99356.27;108083;1254;60261;-71
2023/07/29 10:26:57;;;;;;;2.70;1.70;;;;;;;39.03;25.31;99357.30;108001;1253;60482;-71
2023/07/29 10:29:24;;;;;;;4.10;2.40;;;;;;;38.75;25.78;99361.84;108136;1254;63724;-71
2023/07/29 10:31:54;;;;;;;3.20;2.30;;;;;;;38.85;25.99;99364.62;108103;1253;69201;-70
2023/07/29 10:34:22;;;;;;;3.40;2.40;;;;;;;39.09;25.91;99354.39;108083;1253;64118;-71
2023/07/29 10:36:49;;;;;;;5.80;2.40;;;;;;;39.27;25.82;99351.34;108064;1253;60496;-71
2023/07/29 10:39:15;;;;;;;5.20;2.30;;;;;;;39.37;25.55;99346.85;108067;1253;60323;-71
2023/07/29 10:42:01;;;;;;;3.50;2.10;;;;;;;39.85;24.80;99339.94;108057;1254;60370;-72
2023/07/29 10:44:43;;;;;;;2.40;1.80;;;;;;;40.02;24.62;99343.77;108074;1253;61622;-72
2023/07/29 10:47:30;;;;;;;10.60;2.50;;;;;;;40.20;24.96;99348.74;108057;1253;64063;-71
2023/07/29 10:49:58;;;;;;;3.00;2.00;;;;;;;40.66;24.56;99350.70;108036;1253;59154;-71
2023/07/29 10:52:33;;;;;;;4.40;2.10;;;;;;;40.99;24.00;99346.98;108111;1254;60451;-71
2023/07/29 10:57:31;;;;;;;8.50;2.90;;;;;;;38.29;26.21;99350.92;104865;1289;600303;-71
2023/07/29 10:59:59;;;;;;;3.80;2.10;;;;;;;38.89;25.66;99354.09;107751;1257;59128;-71
2023/07/29 11:02:36;;;;;;;2.80;2.00;;;;;;;39.27;25.39;99354.92;107710;1262;59105;-71
2023/07/29 11:05:06;;;;;;;4.60;2.40;;;;;;;39.57;25.38;99348.48;107600;1256;62084;-71
2023/07/29 11:07:44;;;;;;;4.10;2.40;;;;;;;39.92;25.04;99345.98;107773;1257;60354;-71
2023/07/29 11:10:13;;;;;;;4.40;2.20;;;;;;;40.25;24.54;99340.65;107571;1254;277293;-71
2023/07/29 11:12:42;;;;;;;3.80;1.90;;;;;;;40.53;23.96;99340.52;107863;1255;59189;-72
2023/07/29 11:15:10;;;;;;;2.90;1.60;;;;;;;40.83;23.69;99342.84;107918;1255;59091;-71
2023/07/29 11:17:46;;;;;;;2.60;1.60;;;;;;;40.87;23.61;99337.26;108028;1254;63530;-69
2023/07/29 11:20:14;;;;;;;2.50;1.90;;;;;;;40.92;23.83;99339.52;107949;1254;61500;-72
2023/07/29 11:22:42;;;;;;;3.20;2.00;;;;;;;40.90;23.72;99343.06;107953;1257;62608;-72
2023/07/29 11:25:11;;;;;;;5.10;1.80;;;;;;;41.14;23.35;99339.74;107811;1256;59537;-74
2023/07/29 11:27:39;;;;;;;7.70;2.40;;;;;;;41.39;22.59;99333.21;107911;1256;60239;-72
2023/07/29 11:30:09;;;;;;;2.20;1.70;;;;;;;41.69;22.44;99327.95;107867;1260;64421;-72